Time;durP1;ratioP1;P1;durP2;ratioP2;P2;SDS_P1;SDS_P2;PMS_P1;PMS_P2;Temp;Humidity;BMP_temperature;BMP_pressure;BME280_temperature;BME280_humidity;BME280_pressure;Samples;Min_cycle;Max_cycle;Signal;HPM_P1;HPM_P2
2023/10/09 00:02:09;;;;;;;16.80;12.23;;;;;;;;;;5066511;28;20199;-51
2023/10/09 00:04:41;;;;;;;17.70;13.20;;;;;;;;;;5066772;28;20184;-51
2023/10/09 00:07:08;;;;;;;17.47;13.47;;;;;;;;;;5069268;28;20231;-50
2023/10/09 00:09:46;;;;;;;19.90;12.97;;;;;;;;;;5067830;28;20258;-51
2023/10/09 00:12:14;;;;;;;18.07;12.60;;;;;;;;;;5066337;28;20181;-50
2023/10/09 00:14:47;;;;;;;20.20;12.60;;;;;;;;;;5063008;28;20184;-51
2023/10/09 00:19:42;;;;;;;19.50;11.70;;;;;;;;;;5065300;28;20288;-51
2023/10/09 00:22:18;;;;;;;14.30;11.40;;;;;;;;;;5061913;28;20185;-50
2023/10/09 00:24:46;;;;;;;14.30;11.53;;;;;;;;;;5070805;28;20183;-50
2023/10/09 00:27:12;;;;;;;13.00;11.03;;;;;;;;;;5067387;28;20677;-51
2023/10/09 00:29:44;;;;;;;14.07;11.00;;;;;;;;;;5064743;28;20224;-50
2023/10/09 00:32:22;;;;;;;23.13;12.70;;;;;;;;;;5067534;28;20173;-50
2023/10/09 00:34:50;;;;;;;16.57;10.77;;;;;;;;;;5070892;28;20184;-49
2023/10/09 00:37:16;;;;;;;13.37;10.97;;;;;;;;;;5070643;28;20187;-50
2023/10/09 00:39:43;;;;;;;14.70;10.97;;;;;;;;;;5068183;28;20275;-50
2023/10/09 00:42:14;;;;;;;15.17;11.20;;;;;;;;;;5066946;28;20225;-49
2023/10/09 00:44:41;;;;;;;16.10;11.40;;;;;;;;;;5059866;28;20255;-49
2023/10/09 00:47:20;;;;;;;16.30;12.27;;;;;;;;;;5065693;28;20610;-50
2023/10/09 00:50:01;;;;;;;15.10;11.50;;;;;;;;;;5066562;28;20204;-50
2023/10/09 00:52:32;;;;;;;13.07;11.03;;;;;;;;;;5066912;28;20180;-50
2023/10/09 00:55:03;;;;;;;14.47;10.60;;;;;;;;;;5069087;28;20177;-50
2023/10/09 00:57:31;;;;;;;17.00;11.82;;;;;;;;;;5059001;28;20430;-50
2023/10/09 01:00:07;;;;;;;12.57;11.20;;;;;;;;;;5067255;28;20184;-50
2023/10/09 01:02:36;;;;;;;15.60;11.87;;;;;;;;;;5060989;28;20612;-50
2023/10/09 01:05:18;;;;;;;13.73;11.97;;;;;;;;;;5070014;28;20640;-50
2023/10/09 01:07:46;;;;;;;11.87;9.27;;;;;;;;;;5058288;28;20524;-51
2023/10/09 01:10:16;;;;;;;12.20;9.57;;;;;;;;;;5062849;28;20189;-50
2023/10/09 01:12:44;;;;;;;12.07;9.67;;;;;;;;;;5063190;28;20176;-50
2023/10/09 01:15:36;;;;;;;13.33;10.10;;;;;;;;;;5061308;28;20189;-50
2023/10/09 01:17:58;;;;;;;13.10;9.77;;;;;;;;;;5066157;28;20176;-50
2023/10/09 01:20:36;;;;;;;12.33;10.30;;;;;;;;;;5067286;28;20236;-50
2023/10/09 01:23:02;;;;;;;12.87;9.40;;;;;;;;;;5056228;28;20528;-49
2023/10/09 01:25:41;;;;;;;13.97;9.60;;;;;;;;;;5074375;28;20193;-49
2023/10/09 01:28:07;;;;;;;19.13;11.37;;;;;;;;;;5069184;28;20188;-50
2023/10/09 01:30:34;;;;;;;14.23;10.07;;;;;;;;;;5067885;28;20223;-49
2023/10/09 01:33:11;;;;;;;13.83;9.73;;;;;;;;;;5072463;28;20184;-50
2023/10/09 01:35:50;;;;;;;13.00;9.63;;;;;;;;;;5069995;28;20933;-50
2023/10/09 01:38:16;;;;;;;13.77;9.20;;;;;;;;;;5066896;28;20172;-49
2023/10/09 01:40:44;;;;;;;13.77;10.57;;;;;;;;;;5068132;28;20194;-50
2023/10/09 01:43:10;;;;;;;13.00;9.53;;;;;;;;;;5070253;28;20538;-50
2023/10/09 01:45:46;;;;;;;12.40;9.40;;;;;;;;;;5070159;28;20259;-50
2023/10/09 01:48:14;;;;;;;13.37;10.23;;;;;;;;;;5071559;28;20670;-50
2023/10/09 01:50:42;;;;;;;12.77;9.93;;;;;;;;;;5069183;28;20345;-50
2023/10/09 01:53:08;;;;;;;14.40;9.63;;;;;;;;;;5069136;28;20287;-50
2023/10/09 01:55:38;;;;;;;15.23;10.37;;;;;;;;;;5075322;28;20270;-50
2023/10/09 02:00:54;;;;;;;13.47;10.13;;;;;;;;;;5061766;28;20721;-50
2023/10/09 02:03:23;;;;;;;11.67;9.83;;;;;;;;;;5070068;28;20188;-50
2023/10/09 02:05:51;;;;;;;11.43;9.23;;;;;;;;;;5077468;28;20272;-50
2023/10/09 02:08:21;;;;;;;18.53;9.10;;;;;;;;;;5066832;28;20183;-50
2023/10/09 02:10:48;;;;;;;12.77;9.77;;;;;;;;;;5068618;28;20207;-50
2023/10/09 02:13:16;;;;;;;13.90;9.67;;;;;;;;;;5075647;28;20202;-50
2023/10/09 02:18:17;;;;;;;14.00;10.10;;;;;;;;;;5060626;28;20189;-49
2023/10/09 02:20:48;;;;;;;11.47;9.00;;;;;;;;;;5066340;28;20739;-50
2023/10/09 02:23:17;;;;;;;12.53;10.07;;;;;;;;;;5072778;28;20559;-50
2023/10/09 02:25:43;;;;;;;11.43;9.07;;;;;;;;;;5068735;28;20528;-50
2023/10/09 02:28:19;;;;;;;12.13;9.70;;;;;;;;;;5069925;28;20196;-50
2023/10/09 02:30:49;;;;;;;11.17;8.93;;;;;;;;;;5065420;28;20258;-49
2023/10/09 02:33:27;;;;;;;11.53;9.23;;;;;;;;;;5075456;28;20176;-50
2023/10/09 02:35:54;;;;;;;16.03;8.97;;;;;;;;;;5057850;28;20663;-50
2023/10/09 02:38:23;;;;;;;11.63;9.30;;;;;;;;;;5066859;28;20726;-49
2023/10/09 02:43:44;;;;;;;15.77;10.33;;;;;;;;;;5068954;28;20200;-49
2023/10/09 02:46:20;;;;;;;13.00;9.90;;;;;;;;;;5062392;28;20182;-49
2023/10/09 02:48:53;;;;;;;13.70;9.30;;;;;;;;;;5069007;28;20305;-49
2023/10/09 02:53:52;;;;;;;12.77;9.87;;;;;;;;;;5067954;28;20657;-50
2023/10/09 02:56:24;;;;;;;12.63;9.80;;;;;;;;;;5067680;28;20182;-49
2023/10/09 02:58:54;;;;;;;13.10;10.03;;;;;;;;;;5059556;28;20197;-50
2023/10/09 03:01:20;;;;;;;12.30;10.30;;;;;;;;;;5067807;28;20198;-49
2023/10/09 03:03:47;;;;;;;13.10;9.17;;;;;;;;;;5065539;28;20180;-50
2023/10/09 03:06:24;;;;;;;14.33;9.23;;;;;;;;;;5063204;28;20259;-50
2023/10/09 03:08:50;;;;;;;11.37;9.43;;;;;;;;;;5060941;28;20243;-50
2023/10/09 03:11:18;;;;;;;11.57;9.60;;;;;;;;;;5067313;28;20177;-50
2023/10/09 03:13:45;;;;;;;12.57;9.00;;;;;;;;;;5062968;28;20190;-50
2023/10/09 03:16:18;;;;;;;13.93;8.97;;;;;;;;;;5064390;28;20267;-50
2023/10/09 03:18:46;;;;;;;14.20;8.33;;;;;;;;;;5063753;28;20656;-50
2023/10/09 03:21:14;;;;;;;14.20;9.70;;;;;;;;;;5063085;28;20183;-50
2023/10/09 03:23:40;;;;;;;11.30;10.07;;;;;;;;;;5064577;28;20210;-50
2023/10/09 03:26:08;;;;;;;13.83;9.30;;;;;;;;;;5068756;28;20182;-50
2023/10/09 03:28:35;;;;;;;12.90;8.90;;;;;;;;;;5061975;28;20329;-50
2023/10/09 03:31:02;;;;;;;13.53;9.60;;;;;;;;;;5066397;28;20184;-50
2023/10/09 03:33:32;;;;;;;12.47;9.20;;;;;;;;;;5059630;28;20212;-49
2023/10/09 03:36:00;;;;;;;11.13;9.07;;;;;;;;;;5065439;28;20172;-50
2023/10/09 03:38:29;;;;;;;13.10;9.63;;;;;;;;;;5066177;28;20188;-50
2023/10/09 03:40:55;;;;;;;10.67;8.33;;;;;;;;;;5066442;28;20283;-50
2023/10/09 03:43:21;;;;;;;12.30;8.70;;;;;;;;;;5067342;28;20643;-50
2023/10/09 03:45:54;;;;;;;11.50;8.93;;;;;;;;;;5066416;28;20186;-50
2023/10/09 03:48:22;;;;;;;12.00;8.23;;;;;;;;;;5063729;28;20185;-50
2023/10/09 03:50:52;;;;;;;12.57;9.13;;;;;;;;;;5067351;28;20202;-50
2023/10/09 03:53:21;;;;;;;12.23;8.60;;;;;;;;;;5065706;28;20274;-50
2023/10/09 03:55:47;;;;;;;10.67;8.67;;;;;;;;;;5067408;28;20207;-50
2023/10/09 03:58:14;;;;;;;13.50;9.67;;;;;;;;;;5063276;28;20254;-50
2023/10/09 04:00:49;;;;;;;10.83;8.53;;;;;;;;;;5064900;28;20188;-49
2023/10/09 04:03:15;;;;;;;10.30;8.47;;;;;;;;;;5067391;28;20617;-50
2023/10/09 04:05:43;;;;;;;10.77;8.93;;;;;;;;;;5065280;28;20194;-50
2023/10/09 04:08:28;;;;;;;10.93;9.07;;;;;;;;;;5065775;28;20194;-50
2023/10/09 04:11:01;;;;;;;10.90;8.30;;;;;;;;;;5061972;28;20206;-49
2023/10/09 04:13:33;;;;;;;11.77;9.00;;;;;;;;;;5066341;28;20182;-50
2023/10/09 04:16:07;;;;;;;9.63;7.40;;;;;;;;;;5062837;28;20186;-49
2023/10/09 04:18:38;;;;;;;12.43;8.43;;;;;;;;;;5061066;28;20688;-50
2023/10/09 04:21:27;;;;;;;10.23;7.63;;;;;;;;;;5066083;28;20198;-50
2023/10/09 04:24:08;;;;;;;10.70;8.30;;;;;;;;;;5066147;28;20176;-51
2023/10/09 04:26:35;;;;;;;10.17;8.00;;;;;;;;;;5060117;28;20178;-50
2023/10/09 04:29:02;;;;;;;10.90;7.90;;;;;;;;;;5063119;28;20678;-50
2023/10/09 04:31:37;;;;;;;10.87;7.60;;;;;;;;;;5062072;28;20199;-50
2023/10/09 04:34:48;;;;;;;11.10;7.53;;;;;;;;;;5067184;28;20187;-50
2023/10/09 04:37:00;;;;;;;9.73;7.00;;;;;;;;;;5059311;28;20238;-51
2023/10/09 04:39:36;;;;;;;10.97;7.77;;;;;;;;;;5063167;28;20556;-50
2023/10/09 04:42:19;;;;;;;9.13;7.87;;;;;;;;;;5065097;28;20290;-50
2023/10/09 04:47:37;;;;;;;9.83;7.70;;;;;;;;;;5049671;28;20606;-50
2023/10/09 04:50:08;;;;;;;8.37;6.87;;;;;;;;;;5060470;28;20197;-50
2023/10/09 05:02:56;;;;;;;10.43;8.80;;;;;;;;;;5069104;28;20213;-51
2023/10/09 05:11:34;;;;;;;11.43;8.20;;;;;;;;;;5064591;28;20262;-51
2023/10/09 05:16:25;;;;;;;8.90;7.07;;;;;;;;;;5070710;28;20284;-50
2023/10/09 05:18:59;;;;;;;11.63;7.80;;;;;;;;;;5064977;28;20547;-50
2023/10/09 05:21:48;;;;;;;9.93;7.57;;;;;;;;;;5062857;28;20607;-50
2023/10/09 05:32:03;;;;;;;8.83;6.80;;;;;;;;;;5062869;28;20192;-50
2023/10/09 05:37:17;;;;;;;7.97;7.17;;;;;;;;;;5063333;28;20196;-51
2023/10/09 05:40:21;;;;;;;8.17;6.53;;;;;;;;;;5064926;28;20496;-50
2023/10/09 05:42:43;;;;;;;8.33;7.53;;;;;;;;;;5065893;28;20205;-51
2023/10/09 05:50:37;;;;;;;8.57;6.43;;;;;;;;;;5070001;28;20208;-51
2023/10/09 05:53:06;;;;;;;8.80;6.93;;;;;;;;;;5068592;28;20172;-51
2023/10/09 06:06:33;;;;;;;8.80;7.10;;;;;;;;;;5069657;28;20239;-50
2023/10/09 06:11:49;;;;;;;7.17;5.67;;;;;;;;;;5067181;28;20596;-52
2023/10/09 06:14:25;;;;;;;7.87;6.20;;;;;;;;;;5064228;28;20332;-52
2023/10/09 06:19:31;;;;;;;8.50;6.20;;;;;;;;;;5065788;28;20682;-52
2023/10/09 06:22:56;;;;;;;6.63;5.90;;;;;;;;;;5067700;28;20195;-53
2023/10/09 06:25:09;;;;;;;7.60;5.83;;;;;;;;;;5066789;28;20196;-52
2023/10/09 06:35:22;;;;;;;6.73;5.30;;;;;;;;;;5067916;28;20168;-53
2023/10/09 06:45:55;;;;;;;7.77;6.30;;;;;;;;;;5067285;28;20181;-53
2023/10/09 06:59:04;;;;;;;9.30;6.40;;;;;;;;;;5063755;28;20285;-53
2023/10/09 07:01:42;;;;;;;6.47;5.67;;;;;;;;;;5068880;28;20655;-53
2023/10/09 07:04:18;;;;;;;6.93;6.13;;;;;;;;;;5066012;28;20642;-56
2023/10/09 07:06:48;;;;;;;6.70;5.67;;;;;;;;;;5065802;28;20245;-52
2023/10/09 07:09:15;;;;;;;6.70;5.80;;;;;;;;;;5066405;28;20213;-52
2023/10/09 07:25:14;;;;;;;8.10;6.07;;;;;;;;;;5065303;28;20223;-52
2023/10/09 07:27:44;;;;;;;8.63;5.97;;;;;;;;;;5065980;28;20649;-52
2023/10/09 07:38:14;;;;;;;7.63;6.13;;;;;;;;;;5064404;28;20355;-52
2023/10/09 07:41:08;;;;;;;9.50;7.17;;;;;;;;;;5067892;28;20172;-52
2023/10/09 07:46:32;;;;;;;9.30;6.77;;;;;;;;;;5067289;28;20171;-53
2023/10/09 07:49:00;;;;;;;7.67;6.03;;;;;;;;;;5066527;28;20203;-53
2023/10/09 07:51:32;;;;;;;9.17;6.53;;;;;;;;;;5066743;28;20168;-52
2023/10/09 07:54:08;;;;;;;6.93;6.23;;;;;;;;;;5065730;28;20655;-52
2023/10/09 07:56:49;;;;;;;7.57;6.10;;;;;;;;;;5067954;28;20265;-53
2023/10/09 07:59:19;;;;;;;7.53;6.70;;;;;;;;;;5063788;28;20195;-52
2023/10/09 08:01:52;;;;;;;8.17;6.40;;;;;;;;;;5055365;28;20183;-52
2023/10/09 08:04:37;;;;;;;7.70;6.10;;;;;;;;;;5063239;28;20446;-53
2023/10/09 08:07:07;;;;;;;9.50;6.80;;;;;;;;;;5060221;28;20227;-52
2023/10/09 08:10:43;;;;;;;7.27;6.50;;;;;;;;;;5064694;28;20570;-51
2023/10/09 08:17:59;;;;;;;8.67;6.67;;;;;;;;;;5061639;28;20252;-52
2023/10/09 08:20:26;;;;;;;10.43;5.90;;;;;;;;;;5059099;28;20179;-52
2023/10/09 08:22:55;;;;;;;6.83;6.03;;;;;;;;;;5056283;28;20187;-52
2023/10/09 08:25:31;;;;;;;9.40;6.57;;;;;;;;;;5066542;28;20180;-52
2023/10/09 08:30:51;;;;;;;14.13;8.03;;;;;;;;;;5062602;28;20565;-51
2023/10/09 08:36:01;;;;;;;11.13;7.30;;;;;;;;;;5066698;28;20559;-51
2023/10/09 08:38:33;;;;;;;12.07;7.23;;;;;;;;;;5071370;28;20172;-51
2023/10/09 08:41:16;;;;;;;14.67;7.80;;;;;;;;;;5075347;28;20667;-51
2023/10/09 08:43:53;;;;;;;11.87;7.50;;;;;;;;;;5064022;28;20177;-51
2023/10/09 08:46:29;;;;;;;10.70;8.23;;;;;;;;;;5062443;28;20183;-52
2023/10/09 08:48:56;;;;;;;11.57;8.67;;;;;;;;;;5066861;28;20196;-52
2023/10/09 08:51:26;;;;;;;16.77;8.73;;;;;;;;;;5062483;28;20267;-52
2023/10/09 08:53:53;;;;;;;12.23;10.10;;;;;;;;;;5064422;28;20299;-51
2023/10/09 08:56:23;;;;;;;15.43;9.30;;;;;;;;;;5065925;28;20177;-51
2023/10/09 08:58:53;;;;;;;12.77;10.23;;;;;;;;;;5060213;28;20220;-52
2023/10/09 09:01:21;;;;;;;12.27;9.77;;;;;;;;;;5060275;28;20179;-50
2023/10/09 09:03:48;;;;;;;15.67;11.77;;;;;;;;;;5063571;28;20256;-51
2023/10/09 09:06:14;;;;;;;12.83;9.87;;;;;;;;;;5065262;28;20183;-51
2023/10/09 09:08:44;;;;;;;15.73;10.73;;;;;;;;;;5063091;28;20184;-51
2023/10/09 09:11:16;;;;;;;13.27;9.97;;;;;;;;;;5065168;28;20180;-51
2023/10/09 09:13:48;;;;;;;15.33;11.07;;;;;;;;;;5064621;28;20226;-51
2023/10/09 09:16:37;;;;;;;13.87;10.33;;;;;;;;;;5059872;28;20547;-51
2023/10/09 09:21:40;;;;;;;12.57;10.20;;;;;;;;;;5066741;28;20200;-51
2023/10/09 09:24:26;;;;;;;12.03;10.47;;;;;;;;;;5064257;28;20177;-50
2023/10/09 09:26:59;;;;;;;13.53;10.50;;;;;;;;;;5066656;28;20657;-50
2023/10/09 09:29:52;;;;;;;12.90;9.90;;;;;;;;;;5066944;28;20259;-53
2023/10/09 09:32:29;;;;;;;15.67;9.87;;;;;;;;;;5066754;28;20164;-52
2023/10/09 09:35:04;;;;;;;13.13;10.13;;;;;;;;;;5078370;28;20176;-53
2023/10/09 09:40:28;;;;;;;13.17;9.57;;;;;;;;;;5067326;28;20192;-53
2023/10/09 09:43:06;;;;;;;14.37;8.53;;;;;;;;;;5062783;28;20181;-52
2023/10/09 09:45:35;;;;;;;13.30;10.83;;;;;;;;;;5067198;28;20536;-52
2023/10/09 09:48:06;;;;;;;16.00;10.23;;;;;;;;;;5067377;28;20234;-53
2023/10/09 09:50:32;;;;;;;12.13;10.10;;;;;;;;;;5066175;28;20667;-53
2023/10/09 09:52:59;;;;;;;11.80;9.27;;;;;;;;;;5062096;28;20180;-53
2023/10/09 09:55:52;;;;;;;15.77;10.67;;;;;;;;;;5068261;28;20187;-54
2023/10/09 09:58:23;;;;;;;13.43;8.90;;;;;;;;;;5050963;28;20560;-53
2023/10/09 10:00:54;;;;;;;14.13;9.90;;;;;;;;;;5065349;28;20226;-53
2023/10/09 10:03:23;;;;;;;17.73;11.07;;;;;;;;;;5064783;28;20188;-53
2023/10/09 10:05:50;;;;;;;12.13;9.77;;;;;;;;;;5068370;28;20195;-51
2023/10/09 10:08:31;;;;;;;11.23;9.70;;;;;;;;;;5065663;28;20525;-52
2023/10/09 10:11:15;;;;;;;11.93;9.97;;;;;;;;;;5061347;28;20203;-52
2023/10/09 10:13:41;;;;;;;14.33;10.63;;;;;;;;;;5066672;28;20233;-52
2023/10/09 10:16:20;;;;;;;17.63;13.43;;;;;;;;;;5066531;28;20189;-52
2023/10/09 10:19:06;;;;;;;16.33;11.67;;;;;;;;;;5066027;28;20195;-53
2023/10/09 10:21:37;;;;;;;18.07;12.90;;;;;;;;;;5064597;28;20180;-52
2023/10/09 10:24:13;;;;;;;15.27;11.63;;;;;;;;;;5059436;28;20179;-52
2023/10/09 10:26:40;;;;;;;13.43;10.50;;;;;;;;;;5062725;28;20187;-51
2023/10/09 10:29:33;;;;;;;12.37;9.27;;;;;;;;;;5067655;28;20222;-52
2023/10/09 10:32:01;;;;;;;13.23;9.63;;;;;;;;;;5066032;28;20191;-52
2023/10/09 10:34:27;;;;;;;10.73;9.57;;;;;;;;;;5060250;28;20182;-52
2023/10/09 10:37:00;;;;;;;12.67;8.57;;;;;;;;;;5065516;28;20181;-52
2023/10/09 10:39:45;;;;;;;14.50;9.67;;;;;;;;;;5066513;28;20173;-51
2023/10/09 10:45:06;;;;;;;10.57;8.67;;;;;;;;;;5063396;28;20191;-54
2023/10/09 10:47:34;;;;;;;11.77;8.37;;;;;;;;;;5063190;28;20281;-54
2023/10/09 10:50:35;;;;;;;13.43;9.67;;;;;;;;;;5066010;28;20549;-55
2023/10/09 10:53:34;;;;;;;12.40;8.90;;;;;;;;;;5063741;28;20219;-55
2023/10/09 10:56:36;;;;;;;12.07;9.47;;;;;;;;;;5061309;28;20207;-54
2023/10/09 11:07:16;;;;;;;11.20;8.83;;;;;;;;;;5066438;28;20247;-55
2023/10/09 11:10:26;;;;;;;15.43;8.93;;;;;;;;;;5066191;28;20205;-54
2023/10/09 11:15:44;;;;;;;12.30;9.67;;;;;;;;;;5063794;28;20265;-55
2023/10/09 11:18:20;;;;;;;13.03;8.90;;;;;;;;;;5060694;28;20265;-55
2023/10/09 11:28:56;;;;;;;9.53;8.53;;;;;;;;;;5063479;28;20250;-56
2023/10/09 11:31:22;;;;;;;13.03;8.27;;;;;;;;;;5060877;28;20186;-56
2023/10/09 11:33:52;;;;;;;12.60;9.50;;;;;;;;;;5065597;28;20265;-55
2023/10/09 11:36:29;;;;;;;11.23;7.73;;;;;;;;;;5060085;28;20181;-55
2023/10/09 11:39:13;;;;;;;11.20;9.65;;;;;;;;;;5060688;28;20416;-55
2023/10/09 11:41:42;;;;;;;9.57;8.00;;;;;;;;;;5065960;28;20169;-56
2023/10/09 11:44:23;;;;;;;9.70;8.07;;;;;;;;;;5060084;28;20172;-56
2023/10/09 11:47:22;;;;;;;11.60;9.03;;;;;;;;;;5059314;28;20168;-56
2023/10/09 11:50:33;;;;;;;12.60;7.83;;;;;;;;;;5061081;28;20268;-57
2023/10/09 11:53:08;;;;;;;15.37;9.07;;;;;;;;;;5051524;28;20183;-54
2023/10/09 11:55:34;;;;;;;13.23;8.77;;;;;;;;;;5060088;28;20189;-56
2023/10/09 11:58:02;;;;;;;10.23;9.10;;;;;;;;;;5064243;28;20261;-57
2023/10/09 12:00:29;;;;;;;10.47;9.37;;;;;;;;;;5053822;28;20460;-56
2023/10/09 12:02:56;;;;;;;16.83;9.70;;;;;;;;;;5062901;28;20166;-57
2023/10/09 12:05:23;;;;;;;11.53;9.73;;;;;;;;;;5066531;28;20189;-56
2023/10/09 12:07:56;;;;;;;13.77;9.53;;;;;;;;;;5064050;28;20184;-57
2023/10/09 12:10:25;;;;;;;12.83;8.90;;;;;;;;;;5065235;28;20278;-56
2023/10/09 12:12:57;;;;;;;11.40;10.07;;;;;;;;;;5064562;28;20588;-56
2023/10/09 12:15:36;;;;;;;13.37;9.87;;;;;;;;;;5059640;28;20174;-56
2023/10/09 12:18:03;;;;;;;13.13;9.50;;;;;;;;;;5065216;28;20654;-57
2023/10/09 12:20:30;;;;;;;10.77;8.90;;;;;;;;;;5064574;28;20186;-56
2023/10/09 12:23:00;;;;;;;11.20;9.37;;;;;;;;;;5062817;28;20625;-58
2023/10/09 12:25:31;;;;;;;13.80;8.70;;;;;;;;;;5064679;28;20658;-57
2023/10/09 12:27:57;;;;;;;11.10;9.03;;;;;;;;;;5064458;28;20275;-58
2023/10/09 12:30:27;;;;;;;13.47;9.87;;;;;;;;;;5062576;28;20292;-56
2023/10/09 12:32:55;;;;;;;11.60;8.93;;;;;;;;;;5077890;28;20281;-54
2023/10/09 12:35:23;;;;;;;12.73;9.70;;;;;;;;;;5065455;28;20300;-57
2023/10/09 12:37:50;;;;;;;12.77;10.03;;;;;;;;;;5064642;28;20233;-56
2023/10/09 12:40:23;;;;;;;12.90;8.90;;;;;;;;;;5062498;28;20174;-57
2023/10/09 12:42:53;;;;;;;12.60;9.70;;;;;;;;;;5065699;28;20177;-55
2023/10/09 12:45:26;;;;;;;11.80;9.77;;;;;;;;;;5064679;28;20273;-56
2023/10/09 12:47:52;;;;;;;11.53;9.43;;;;;;;;;;5064448;28;20322;-55
2023/10/09 12:50:27;;;;;;;15.70;10.07;;;;;;;;;;5064352;28;20203;-56
2023/10/09 12:52:56;;;;;;;12.33;8.97;;;;;;;;;;5057930;28;20259;-56
2023/10/09 12:55:31;;;;;;;11.80;9.57;;;;;;;;;;5063474;28;20243;-56
2023/10/09 12:58:00;;;;;;;14.17;10.17;;;;;;;;;;5064625;28;20326;-56
2023/10/09 13:00:27;;;;;;;14.73;10.07;;;;;;;;;;5065789;28;20189;-56
2023/10/09 13:02:53;;;;;;;12.73;9.20;;;;;;;;;;5065794;28;20174;-56
2023/10/09 13:05:26;;;;;;;14.37;9.70;;;;;;;;;;5066497;28;20178;-56
2023/10/09 13:07:53;;;;;;;13.23;9.93;;;;;;;;;;5065555;28;20322;-56
2023/10/09 13:10:24;;;;;;;13.77;10.30;;;;;;;;;;5066938;28;20583;-56
2023/10/09 13:12:55;;;;;;;13.47;10.20;;;;;;;;;;5067889;28;20267;-56
2023/10/09 13:15:21;;;;;;;11.83;10.63;;;;;;;;;;5063314;28;20196;-55
2023/10/09 13:17:48;;;;;;;14.57;10.23;;;;;;;;;;5070214;28;20178;-54
2023/10/09 13:20:15;;;;;;;13.77;10.37;;;;;;;;;;5069674;28;20200;-55
2023/10/09 13:22:42;;;;;;;12.87;10.80;;;;;;;;;;5066522;28;20182;-55
2023/10/09 13:25:15;;;;;;;12.90;10.13;;;;;;;;;;5068354;28;20653;-55
2023/10/09 13:27:42;;;;;;;12.97;9.73;;;;;;;;;;5066362;28;20214;-56
2023/10/09 13:30:21;;;;;;;17.10;10.63;;;;;;;;;;5066774;28;20381;-58
2023/10/09 13:32:49;;;;;;;17.30;11.97;;;;;;;;;;5065243;28;20177;-58
2023/10/09 13:35:17;;;;;;;15.30;10.30;;;;;;;;;;5062479;28;20608;-57
2023/10/09 13:37:44;;;;;;;16.03;11.37;;;;;;;;;;5063664;28;20555;-57
2023/10/09 13:40:18;;;;;;;16.07;11.60;;;;;;;;;;5067240;28;20260;-57
2023/10/09 13:42:44;;;;;;;18.53;12.67;;;;;;;;;;5067600;28;20183;-58
2023/10/09 13:45:15;;;;;;;16.87;11.47;;;;;;;;;;5067122;28;20176;-57
2023/10/09 13:47:45;;;;;;;15.57;12.33;;;;;;;;;;5068396;28;20177;-58
2023/10/09 13:50:13;;;;;;;16.60;11.27;;;;;;;;;;5067720;28;20212;-57
2023/10/09 13:52:39;;;;;;;15.50;11.03;;;;;;;;;;5066541;28;20177;-57
2023/10/09 13:55:18;;;;;;;13.50;10.93;;;;;;;;;;5064674;28;20170;-57
2023/10/09 13:57:45;;;;;;;15.27;11.60;;;;;;;;;;5065464;28;20659;-56
2023/10/09 14:00:32;;;;;;;19.87;12.23;;;;;;;;;;5062611;28;20177;-55
2023/10/09 14:03:01;;;;;;;17.83;11.83;;;;;;;;;;5063419;28;20181;-57
2023/10/09 14:05:30;;;;;;;16.03;11.83;;;;;;;;;;5066762;28;20181;-57
2023/10/09 14:08:00;;;;;;;15.43;12.43;;;;;;;;;;5067430;28;20189;-58
2023/10/09 14:10:30;;;;;;;13.77;11.23;;;;;;;;;;5077238;28;20218;-58
2023/10/09 14:12:56;;;;;;;16.23;11.47;;;;;;;;;;5059756;28;20283;-57
2023/10/09 14:15:23;;;;;;;17.43;12.43;;;;;;;;;;5056813;28;20675;-57
2023/10/09 14:17:55;;;;;;;14.70;11.27;;;;;;;;;;5061080;28;20762;-57
2023/10/09 14:20:31;;;;;;;13.80;12.47;;;;;;;;;;5064924;28;20176;-57
2023/10/09 14:23:08;;;;;;;13.23;11.13;;;;;;;;;;5058815;28;20181;-56
2023/10/09 14:25:37;;;;;;;14.03;11.20;;;;;;;;;;5068395;28;20191;-56
2023/10/09 14:28:07;;;;;;;12.37;10.97;;;;;;;;;;5065995;28;20191;-56
2023/10/09 14:30:41;;;;;;;13.10;11.00;;;;;;;;;;5065068;28;20232;-58
2023/10/09 14:33:12;;;;;;;15.23;11.60;;;;;;;;;;5066479;28;20299;-58
2023/10/09 14:35:39;;;;;;;13.63;11.63;;;;;;;;;;5061309;28;20491;-58
2023/10/09 14:38:11;;;;;;;17.33;11.17;;;;;;;;;;5065379;28;20211;-57
2023/10/09 14:40:41;;;;;;;15.97;12.53;;;;;;;;;;5067530;28;20197;-57
2023/10/09 14:43:08;;;;;;;15.07;12.07;;;;;;;;;;5065987;28;20197;-57
2023/10/09 14:45:37;;;;;;;17.47;12.63;;;;;;;;;;5066073;28;20191;-57
2023/10/09 14:48:03;;;;;;;14.27;11.73;;;;;;;;;;5066629;28;20207;-60
2023/10/09 14:50:30;;;;;;;15.03;11.73;;;;;;;;;;5067373;28;20208;-58
2023/10/09 14:52:56;;;;;;;15.63;11.83;;;;;;;;;;5064755;28;20652;-56
2023/10/09 14:55:28;;;;;;;16.83;11.77;;;;;;;;;;5066624;28;20196;-57
2023/10/09 14:57:55;;;;;;;21.60;12.97;;;;;;;;;;5066131;28;20244;-57
2023/10/09 15:00:26;;;;;;;15.13;12.33;;;;;;;;;;5065815;28;20237;-55
2023/10/09 15:02:52;;;;;;;19.07;13.97;;;;;;;;;;5060577;28;20202;-57
2023/10/09 15:05:19;;;;;;;13.80;12.03;;;;;;;;;;5063292;28;20182;-56
2023/10/09 15:07:45;;;;;;;13.93;11.43;;;;;;;;;;5064748;28;20509;-57
2023/10/09 15:10:15;;;;;;;14.20;11.67;;;;;;;;;;5065461;28;20207;-57
2023/10/09 15:12:42;;;;;;;16.40;12.37;;;;;;;;;;5061214;28;20218;-59
2023/10/09 15:15:15;;;;;;;14.33;11.67;;;;;;;;;;5062624;28;20688;-56
2023/10/09 15:17:47;;;;;;;15.20;11.70;;;;;;;;;;5062676;28;20179;-57
2023/10/09 15:20:14;;;;;;;19.00;12.10;;;;;;;;;;5062463;28;20195;-56
2023/10/09 15:22:44;;;;;;;16.43;12.10;;;;;;;;;;5058414;28;20190;-57
2023/10/09 15:25:14;;;;;;;14.60;11.07;;;;;;;;;;5063157;28;20184;-57
2023/10/09 15:27:40;;;;;;;13.13;11.43;;;;;;;;;;5062903;28;20492;-59
2023/10/09 15:30:13;;;;;;;16.93;12.10;;;;;;;;;;5062689;28;20704;-58
2023/10/09 15:32:43;;;;;;;16.37;12.33;;;;;;;;;;5063327;28;20196;-58
2023/10/09 15:35:09;;;;;;;15.07;11.20;;;;;;;;;;5064983;28;20642;-58
2023/10/09 15:37:36;;;;;;;13.07;10.27;;;;;;;;;;5064835;28;20570;-60
2023/10/09 15:40:06;;;;;;;17.10;12.10;;;;;;;;;;5067161;28;20212;-58
2023/10/09 15:42:32;;;;;;;19.30;12.97;;;;;;;;;;5064035;28;20218;-58
2023/10/09 15:45:00;;;;;;;13.93;12.37;;;;;;;;;;5063884;28;20659;-58
2023/10/09 15:47:26;;;;;;;17.43;11.83;;;;;;;;;;5060839;28;20214;-58
2023/10/09 15:49:54;;;;;;;15.67;11.30;;;;;;;;;;5065611;28;20204;-58
2023/10/09 15:52:21;;;;;;;18.07;13.57;;;;;;;;;;5062042;28;20234;-57
2023/10/09 15:54:48;;;;;;;13.10;11.63;;;;;;;;;;5065980;28;20699;-60
2023/10/09 15:57:14;;;;;;;11.93;10.73;;;;;;;;;;5063467;28;20624;-57
2023/10/09 15:59:40;;;;;;;17.17;12.60;;;;;;;;;;5062358;28;20192;-57
2023/10/09 16:02:06;;;;;;;17.67;12.50;;;;;;;;;;5062805;28;21612;-59
2023/10/09 16:04:33;;;;;;;19.13;11.73;;;;;;;;;;5065363;28;20525;-58
2023/10/09 16:07:00;;;;;;;15.47;12.33;;;;;;;;;;5064561;28;20185;-57
2023/10/09 16:09:28;;;;;;;13.67;11.57;;;;;;;;;;5065848;28;20671;-58
2023/10/09 16:11:55;;;;;;;16.57;12.37;;;;;;;;;;5064653;28;20597;-58
2023/10/09 16:14:21;;;;;;;18.27;12.30;;;;;;;;;;5065845;28;20282;-57
2023/10/09 16:16:47;;;;;;;13.77;11.27;;;;;;;;;;5065545;28;20477;-58
2023/10/09 16:19:15;;;;;;;14.40;11.27;;;;;;;;;;5066031;28;20185;-58
2023/10/09 16:21:42;;;;;;;16.60;11.57;;;;;;;;;;5065994;28;20184;-58
2023/10/09 16:24:09;;;;;;;18.90;14.17;;;;;;;;;;5062655;28;20197;-58
2023/10/09 16:26:39;;;;;;;17.90;12.57;;;;;;;;;;5061847;28;20191;-58
2023/10/09 16:29:08;;;;;;;14.17;11.80;;;;;;;;;;5059901;28;20228;-58
2023/10/09 16:31:35;;;;;;;15.03;12.20;;;;;;;;;;5057741;28;20188;-58
2023/10/09 16:34:06;;;;;;;14.43;12.30;;;;;;;;;;5063147;28;20188;-57
2023/10/09 16:36:33;;;;;;;17.37;12.10;;;;;;;;;;5063788;28;20195;-59
2023/10/09 16:38:59;;;;;;;15.73;11.83;;;;;;;;;;5065394;28;20181;-58
2023/10/09 16:41:26;;;;;;;15.40;11.40;;;;;;;;;;5058784;28;20608;-58
2023/10/09 16:43:52;;;;;;;19.57;13.20;;;;;;;;;;5061721;28;20276;-58
2023/10/09 16:46:22;;;;;;;16.60;12.30;;;;;;;;;;5067501;28;20607;-58
2023/10/09 16:48:57;;;;;;;16.23;13.00;;;;;;;;;;5069199;28;20180;-57
2023/10/09 16:51:24;;;;;;;18.63;13.13;;;;;;;;;;5066720;28;20573;-57
2023/10/09 16:53:55;;;;;;;16.13;13.47;;;;;;;;;;5069130;28;20181;-57
2023/10/09 16:56:22;;;;;;;17.43;13.00;;;;;;;;;;5069438;28;20179;-57
2023/10/09 16:58:48;;;;;;;13.23;11.23;;;;;;;;;;5063485;28;20203;-56
2023/10/09 17:01:20;;;;;;;15.10;11.83;;;;;;;;;;5066537;28;20253;-57
2023/10/09 17:03:47;;;;;;;14.93;11.73;;;;;;;;;;5064708;28;20191;-58
2023/10/09 17:06:18;;;;;;;17.77;12.20;;;;;;;;;;5067572;28;20195;-57
2023/10/09 17:08:47;;;;;;;13.80;12.27;;;;;;;;;;5065152;28;20183;-57
2023/10/09 17:11:14;;;;;;;15.97;10.77;;;;;;;;;;5063128;28;20241;-57
2023/10/09 17:13:54;;;;;;;15.00;12.20;;;;;;;;;;5071312;28;20545;-57
2023/10/09 17:16:21;;;;;;;17.47;13.80;;;;;;;;;;5069450;28;20184;-57
2023/10/09 17:18:47;;;;;;;15.93;12.03;;;;;;;;;;5068262;28;20661;-58
2023/10/09 17:21:14;;;;;;;19.23;12.80;;;;;;;;;;5067449;28;20187;-57
2023/10/09 17:23:46;;;;;;;18.93;13.40;;;;;;;;;;5068353;28;20215;-57
2023/10/09 17:26:14;;;;;;;17.37;13.47;;;;;;;;;;5069245;28;20208;-57
2023/10/09 17:28:41;;;;;;;15.00;11.37;;;;;;;;;;5067926;28;20568;-57